createdAt,value
2019-03-21T00:00:51.590Z,16.52
2019-03-21T00:03:21.042Z,13.75
2019-03-21T00:05:50.158Z,14.70
2019-03-21T00:08:19.399Z,15.18
2019-03-21T00:11:11.307Z,16.45
2019-03-21T00:13:40.533Z,18.37
2019-03-21T00:16:14.144Z,17.60
2019-03-21T00:18:43.449Z,21.97
2019-03-21T00:21:12.694Z,20.52
2019-03-21T00:23:42.488Z,19.30
2019-03-21T00:26:11.788Z,22.17
2019-03-21T00:28:40.998Z,19.55
2019-03-21T00:31:10.146Z,18.37
2019-03-21T00:33:39.267Z,21.42
2019-03-21T00:36:08.442Z,20.32
2019-03-21T00:38:37.594Z,21.42
2019-03-21T00:41:06.941Z,17.42
2019-03-21T00:43:36.073Z,19.92
2019-03-21T00:46:05.301Z,22.50
2019-03-21T00:48:34.375Z,18.90
2019-03-21T00:51:03.623Z,18.15
2019-03-21T00:53:32.766Z,18.12
2019-03-21T00:56:02.430Z,15.65
2019-03-21T00:58:31.533Z,19.60
2019-03-21T01:01:03.334Z,20.45
2019-03-21T01:03:32.537Z,20.60
2019-03-21T01:06:01.666Z,21.73
2019-03-21T01:08:30.813Z,19.73
2019-03-21T01:11:00.488Z,20.62
2019-03-21T01:13:32.597Z,16.55
2019-03-21T01:16:02.131Z,19.90
2019-03-21T01:18:31.723Z,19.67
2019-03-21T01:21:01.236Z,19.48
2019-03-21T01:23:30.788Z,18.75
2019-03-21T01:26:06.435Z,17.85
2019-03-21T01:28:35.951Z,17.62
2019-03-21T01:31:05.632Z,19.55
2019-03-21T01:33:36.441Z,19.90
2019-03-21T01:36:07.451Z,18.80
2019-03-21T01:38:36.986Z,19.02
2019-03-21T01:41:12.143Z,17.52
2019-03-21T01:43:41.680Z,19.60
2019-03-21T01:46:13.666Z,19.25
2019-03-21T01:48:42.945Z,19.17
2019-03-21T01:51:12.135Z,21.77
2019-03-21T01:53:41.321Z,19.57
2019-03-21T01:56:11.203Z,19.67
2019-03-21T01:58:40.761Z,20.52
2019-03-21T02:01:10.271Z,21.05
2019-03-21T02:03:40.054Z,23.20
2019-03-21T02:06:09.555Z,20.23
2019-03-21T02:08:39.134Z,22.02
2019-03-21T02:11:08.667Z,22.20
2019-03-21T02:13:38.212Z,22.73
2019-03-21T02:16:43.846Z,20.95
2019-03-21T02:19:12.957Z,20.45
2019-03-21T02:21:42.125Z,19.85
2019-03-21T02:24:11.681Z,22.35
2019-03-21T02:26:41.187Z,20.55
2019-03-21T02:29:10.692Z,21.57
2019-03-21T02:31:40.219Z,19.67
2019-03-21T02:34:09.720Z,19.82
2019-03-21T02:36:39.240Z,21.07
2019-03-21T02:39:08.790Z,22.37
2019-03-21T02:41:38.398Z,19.00
2019-03-21T02:47:48.340Z,20.77
2019-03-21T02:50:23.140Z,21.80
2019-03-21T02:52:52.191Z,21.23
2019-03-21T02:55:22.096Z,19.67
2019-03-21T02:57:51.252Z,18.50
2019-03-21T03:00:34.889Z,18.15
2019-03-21T03:03:04.962Z,19.20
2019-03-21T03:05:35.353Z,20.80
2019-03-21T03:08:05.862Z,22.45
2019-03-21T03:10:41.556Z,22.77
2019-03-21T03:13:11.071Z,20.20
2019-03-21T03:15:41.332Z,20.72
2019-03-21T03:18:15.769Z,23.02
2019-03-21T03:20:45.327Z,23.87
2019-03-21T03:23:14.830Z,24.02
2019-03-21T03:25:44.408Z,24.07
2019-03-21T03:28:22.477Z,23.42
2019-03-21T03:30:54.379Z,22.70
2019-03-21T03:33:23.896Z,25.05
2019-03-21T03:35:53.400Z,25.57
2019-03-21T03:38:22.967Z,23.90
2019-03-21T03:41:00.723Z,21.02
2019-03-21T03:43:30.251Z,24.37
2019-03-21T03:45:59.905Z,20.08
2019-03-21T03:48:29.681Z,25.10
2019-03-21T03:50:59.241Z,25.25
2019-03-21T03:53:28.765Z,24.63
2019-03-21T03:55:59.212Z,22.75
2019-03-21T03:58:43.390Z,26.70
2019-03-21T04:01:13.193Z,26.68
2019-03-21T04:03:42.681Z,24.90
2019-03-21T04:06:12.226Z,31.60
2019-03-21T04:08:41.753Z,28.62
2019-03-21T04:11:11.236Z,26.07
2019-03-21T04:13:44.694Z,25.88
2019-03-21T04:16:16.596Z,25.85
2019-03-21T04:18:46.088Z,29.23
2019-03-21T04:21:16.938Z,25.95
2019-03-21T04:23:46.442Z,30.68
2019-03-21T04:26:31.078Z,26.00
2019-03-21T04:29:00.634Z,28.27
2019-03-21T04:31:30.145Z,29.18
2019-03-21T04:34:02.515Z,30.52
2019-03-21T04:36:32.036Z,29.42
2019-03-21T04:39:01.582Z,27.27
2019-03-21T04:41:31.466Z,28.90
2019-03-21T04:44:13.187Z,28.60
2019-03-21T04:46:43.022Z,26.25
2019-03-21T04:49:12.585Z,28.75
2019-03-21T04:51:42.093Z,32.10
2019-03-21T04:54:11.644Z,30.60
2019-03-21T04:56:41.229Z,32.73
2019-03-21T04:59:19.512Z,35.58
2019-03-21T05:01:49.078Z,32.45
2019-03-21T05:04:18.579Z,28.73
2019-03-21T05:06:48.136Z,34.83
2019-03-21T05:09:18.327Z,30.62
2019-03-21T05:11:47.847Z,31.15
2019-03-21T05:14:17.388Z,31.20
2019-03-21T05:16:46.958Z,39.20
2019-03-21T05:19:16.515Z,33.65
2019-03-21T05:21:46.530Z,37.33
2019-03-21T05:24:16.059Z,35.85
2019-03-21T05:26:45.629Z,33.55
2019-03-21T05:29:15.165Z,38.28
2019-03-21T05:31:44.679Z,36.85
2019-03-21T05:34:14.179Z,37.65
2019-03-21T05:36:43.714Z,42.35
2019-03-21T05:39:13.227Z,38.05
2019-03-21T05:41:42.759Z,40.48
2019-03-21T05:44:27.167Z,41.98
2019-03-21T05:47:03.340Z,38.42
2019-03-21T05:49:33.199Z,46.23
2019-03-21T05:52:02.724Z,41.42
2019-03-21T05:54:32.261Z,41.13
2019-03-21T05:57:01.897Z,42.55
2019-03-21T05:59:31.271Z,46.28
2019-03-21T06:02:00.764Z,46.75
2019-03-21T06:04:30.878Z,44.73
2019-03-21T06:07:12.202Z,41.58
2019-03-21T06:09:41.759Z,42.95
2019-03-21T06:12:11.281Z,48.20
2019-03-21T06:14:58.372Z,45.85
2019-03-21T06:17:27.664Z,47.43
2019-03-21T06:19:59.791Z,48.05
2019-03-21T06:22:44.233Z,47.73
2019-03-21T06:25:31.434Z,50.45
2019-03-21T06:28:01.061Z,48.20
2019-03-21T06:30:30.265Z,48.05
2019-03-21T06:32:59.453Z,43.25
2019-03-21T06:35:28.910Z,47.98
2019-03-21T06:37:58.088Z,53.90
2019-03-21T06:40:27.253Z,47.05
2019-03-21T06:42:56.431Z,48.35
2019-03-21T06:45:25.636Z,46.45
2019-03-21T06:47:54.769Z,48.78
2019-03-21T06:50:23.992Z,48.63
2019-03-21T06:52:53.156Z,44.88
2019-03-21T06:55:22.642Z,45.30
2019-03-21T06:57:52.617Z,51.83
2019-03-21T07:00:21.838Z,46.48
2019-03-21T07:02:50.895Z,45.30
2019-03-21T07:05:20.202Z,45.43
2019-03-21T07:07:49.324Z,41.80
2019-03-21T07:10:19.066Z,45.00
2019-03-21T07:12:48.201Z,42.20
2019-03-21T07:15:17.448Z,43.98
2019-03-21T07:17:46.587Z,40.17
2019-03-21T07:20:15.767Z,39.15
2019-03-21T07:22:44.899Z,38.23
2019-03-21T07:25:15.718Z,41.88
2019-03-21T07:27:44.980Z,36.38
2019-03-21T07:30:15.337Z,36.23
2019-03-21T07:32:44.997Z,35.63
2019-03-21T07:35:14.465Z,34.15
2019-03-21T07:37:43.581Z,34.48
2019-03-21T07:40:14.139Z,39.50
2019-03-21T07:42:43.652Z,35.52
2019-03-21T07:45:13.279Z,35.52
2019-03-21T07:47:42.406Z,38.38
2019-03-21T07:50:13.944Z,33.50
2019-03-21T07:52:43.134Z,38.25
2019-03-21T07:55:13.152Z,34.85
2019-03-21T07:57:42.649Z,38.28
2019-03-21T08:00:17.619Z,39.53
2019-03-21T08:02:46.972Z,32.78
2019-03-21T08:05:17.001Z,40.88
2019-03-21T08:07:46.151Z,34.83
2019-03-21T08:10:15.614Z,29.80
2019-03-21T08:12:45.130Z,36.75
2019-03-21T08:15:15.957Z,35.58
2019-03-21T08:17:45.136Z,35.38
2019-03-21T08:20:15.561Z,39.13
2019-03-21T08:22:46.250Z,34.58
2019-03-21T08:25:15.750Z,32.15
2019-03-21T08:27:45.168Z,32.83
2019-03-21T08:30:23.248Z,33.53
2019-03-21T08:32:52.502Z,32.45
2019-03-21T08:35:21.651Z,40.73
2019-03-21T08:37:51.071Z,36.20
2019-03-21T08:40:20.261Z,35.88
2019-03-21T08:42:49.371Z,37.93
2019-03-21T08:45:18.725Z,33.80
2019-03-21T08:47:47.879Z,34.30
2019-03-21T08:50:18.256Z,36.83
2019-03-21T08:52:47.410Z,34.08
2019-03-21T08:55:16.916Z,35.63
2019-03-21T08:57:46.062Z,33.35
2019-03-21T09:00:19.717Z,36.63
2019-03-21T09:02:48.474Z,32.95
2019-03-21T09:05:17.292Z,35.92
2019-03-21T09:07:46.143Z,32.80
2019-03-21T09:10:16.400Z,36.98
2019-03-21T09:12:45.358Z,31.50
2019-03-21T09:15:14.314Z,31.02
2019-03-21T09:17:43.096Z,30.95
2019-03-21T09:20:11.982Z,35.70
2019-03-21T09:22:40.821Z,35.10
2019-03-21T09:25:09.791Z,34.48
2019-03-21T09:27:38.700Z,42.35
2019-03-21T09:30:11.573Z,38.13
2019-03-21T09:32:40.426Z,35.60
2019-03-21T09:35:09.425Z,36.13
2019-03-21T09:37:38.371Z,36.88
2019-03-21T09:40:07.916Z,39.25
2019-03-21T09:42:36.711Z,36.45
2019-03-21T09:45:09.295Z,37.48
2019-03-21T09:47:38.200Z,41.58
2019-03-21T09:50:07.606Z,36.30
2019-03-21T09:52:36.421Z,41.70
2019-03-21T09:55:06.333Z,39.10
2019-03-21T09:57:35.236Z,41.05
2019-03-21T10:00:11.076Z,38.30
2019-03-21T10:02:39.894Z,45.05
2019-03-21T10:05:09.523Z,44.75
2019-03-21T10:07:40.347Z,42.75
2019-03-21T10:10:10.228Z,42.88
2019-03-21T10:12:39.042Z,38.28
2019-03-21T10:15:08.118Z,43.63
2019-03-21T10:17:37.263Z,42.43
2019-03-21T10:20:06.885Z,38.25
2019-03-21T10:22:36.111Z,37.17
2019-03-21T10:25:06.483Z,39.85
2019-03-21T10:27:35.339Z,36.42
2019-03-21T10:30:08.866Z,44.88
2019-03-21T10:32:37.657Z,43.73
2019-03-21T10:35:06.449Z,43.38
2019-03-21T10:37:35.228Z,43.80
2019-03-21T10:40:05.449Z,44.75
2019-03-21T10:42:34.226Z,45.23
2019-03-21T10:45:03.746Z,45.45
2019-03-21T10:47:32.533Z,49.50
2019-03-21T10:50:01.362Z,46.88
2019-03-21T10:52:33.367Z,47.45
2019-03-21T10:55:03.581Z,52.38
2019-03-21T10:57:32.373Z,46.75
2019-03-21T11:00:01.940Z,44.48
2019-03-21T11:02:31.584Z,47.62
2019-03-21T11:05:00.818Z,46.77
2019-03-21T11:07:29.965Z,52.25
2019-03-21T11:09:59.074Z,53.75
2019-03-21T11:12:28.335Z,52.50
2019-03-21T11:14:57.440Z,53.50
2019-03-21T11:17:26.928Z,50.90
2019-03-21T11:19:55.743Z,61.75
2019-03-21T11:22:24.512Z,48.25
2019-03-21T11:24:53.317Z,51.45
2019-03-21T11:27:22.132Z,51.73
2019-03-21T11:29:51.250Z,48.98
2019-03-21T11:32:20.016Z,52.20
2019-03-21T11:34:48.876Z,54.03
2019-03-21T11:37:18.057Z,46.48
2019-03-21T11:39:46.812Z,54.40
2019-03-21T11:42:15.704Z,50.10
2019-03-21T11:44:44.505Z,54.30
2019-03-21T11:47:13.275Z,49.30
2019-03-21T11:49:42.480Z,58.48
2019-03-21T11:52:18.265Z,49.55
2019-03-21T11:54:41.599Z,53.55
2019-03-21T11:57:10.463Z,52.38
2019-03-21T11:59:51.106Z,56.92
2019-03-21T12:02:09.649Z,50.43
2019-03-21T12:04:41.591Z,52.08
2019-03-21T12:07:10.438Z,46.92
2019-03-21T12:09:39.627Z,48.15
2019-03-21T12:12:08.476Z,47.10
2019-03-21T12:14:37.259Z,49.27
2019-03-21T12:17:06.433Z,51.05
2019-03-21T12:19:35.293Z,52.08
2019-03-21T12:22:04.139Z,48.95
2019-03-21T12:24:32.893Z,47.93
2019-03-21T12:27:01.799Z,48.38
2019-03-21T12:29:30.926Z,44.60
2019-03-21T12:31:59.834Z,46.77
2019-03-21T12:34:28.628Z,45.78
2019-03-21T12:36:57.847Z,44.80
2019-03-21T12:39:28.837Z,50.75
2019-03-21T12:41:57.077Z,46.85
2019-03-21T12:44:26.128Z,43.35
2019-03-21T12:46:54.917Z,49.88
2019-03-21T12:49:24.024Z,49.55
2019-03-21T12:51:52.837Z,48.52
2019-03-21T12:54:21.987Z,49.40
2019-03-21T12:56:53.015Z,47.95
2019-03-21T12:59:21.604Z,47.58
2019-03-21T13:01:51.585Z,46.00
2019-03-21T13:04:20.608Z,42.75
2019-03-21T13:06:49.694Z,43.65
2019-03-21T13:09:18.470Z,47.58
2019-03-21T13:11:47.329Z,47.05
2019-03-21T13:14:16.148Z,44.75
2019-03-21T13:16:44.943Z,48.87
2019-03-21T13:19:13.898Z,44.35
2019-03-21T13:21:42.845Z,45.12
2019-03-21T13:24:11.624Z,47.27
2019-03-21T13:26:40.833Z,47.70
2019-03-21T13:29:09.707Z,45.95
2019-03-21T13:31:38.832Z,45.00
2019-03-21T13:34:07.619Z,46.88
2019-03-21T13:36:36.468Z,43.00
2019-03-21T13:39:07.532Z,47.15
2019-03-21T13:41:36.803Z,41.80
2019-03-21T13:44:05.738Z,45.60
2019-03-21T13:46:34.508Z,41.80
2019-03-21T13:49:05.834Z,43.50
2019-03-21T13:51:33.799Z,44.40
2019-03-21T13:54:02.711Z,41.50
2019-03-21T13:56:37.939Z,40.25
2019-03-21T13:59:06.145Z,42.08
2019-03-21T14:01:35.060Z,40.65
2019-03-21T14:04:04.127Z,43.25
2019-03-21T14:06:32.968Z,43.17
2019-03-21T14:09:04.901Z,43.45
2019-03-21T14:11:34.076Z,42.65
2019-03-21T14:14:03.148Z,46.23
2019-03-21T14:16:39.542Z,42.45
2019-03-21T14:19:12.431Z,39.65
2019-03-21T14:21:41.157Z,41.35
2019-03-21T14:24:10.346Z,40.28
2019-03-21T14:26:39.272Z,40.90
2019-03-21T14:29:12.632Z,40.40
2019-03-21T14:31:38.658Z,42.53
2019-03-21T14:34:20.648Z,40.67
2019-03-21T14:36:49.459Z,41.48
2019-03-21T14:39:19.651Z,41.23
2019-03-21T14:41:48.390Z,38.85
2019-03-21T14:44:17.739Z,41.48
2019-03-21T14:46:46.739Z,40.78
2019-03-21T14:49:15.718Z,41.02
2019-03-21T14:51:44.578Z,44.42
2019-03-21T14:54:13.352Z,41.65
2019-03-21T14:56:42.608Z,39.58
2019-03-21T14:59:11.738Z,38.55
2019-03-21T15:01:42.110Z,44.27
2019-03-21T15:04:11.255Z,38.75
2019-03-21T15:06:40.225Z,41.55
2019-03-21T15:09:09.127Z,38.28
2019-03-21T15:11:38.373Z,42.40
2019-03-21T15:14:07.346Z,43.00
2019-03-21T15:16:36.465Z,40.43
2019-03-21T15:19:05.561Z,40.80
2019-03-21T15:21:34.290Z,41.20
2019-03-21T15:24:38.072Z,39.55
2019-03-21T15:27:06.852Z,41.90
2019-03-21T15:29:35.728Z,41.88
2019-03-21T15:32:04.765Z,38.55
2019-03-21T15:34:33.555Z,40.78
2019-03-21T15:37:04.085Z,41.30
2019-03-21T15:39:32.907Z,40.38
2019-03-21T15:42:05.247Z,40.75
2019-03-21T15:44:35.689Z,38.17
2019-03-21T15:47:04.795Z,43.75
2019-03-21T15:49:33.758Z,41.60
2019-03-21T15:52:02.788Z,38.80
2019-03-21T15:54:31.958Z,39.75
2019-03-21T15:57:00.832Z,40.55
2019-03-21T15:59:29.721Z,38.28
2019-03-21T16:01:58.671Z,36.15
2019-03-21T16:04:27.622Z,36.90
2019-03-21T16:06:56.863Z,37.50
2019-03-21T16:09:25.838Z,42.20
2019-03-21T16:11:55.163Z,41.90
2019-03-21T16:14:24.390Z,38.73
2019-03-21T16:16:53.256Z,40.05
2019-03-21T16:19:22.521Z,40.65
2019-03-21T16:21:51.333Z,43.17
2019-03-21T16:24:20.271Z,40.90
2019-03-21T16:26:49.167Z,41.35
2019-03-21T16:29:18.010Z,38.00
2019-03-21T16:31:46.965Z,39.40
2019-03-21T16:34:15.773Z,44.40
2019-03-21T16:36:47.076Z,41.90
2019-03-21T16:39:16.725Z,46.70
2019-03-21T16:41:45.552Z,45.10
2019-03-21T16:44:14.950Z,46.50
2019-03-21T16:46:43.736Z,43.17
2019-03-21T16:49:12.802Z,48.55
2019-03-21T16:51:42.117Z,46.63
2019-03-21T16:54:17.175Z,49.55
2019-03-21T16:56:41.295Z,49.10
2019-03-21T16:59:10.471Z,50.00
2019-03-21T17:01:39.304Z,52.88
2019-03-21T17:04:08.351Z,46.30
2019-03-21T17:06:37.161Z,50.85
2019-03-21T17:09:07.187Z,51.90
2019-03-21T17:11:36.222Z,49.98
2019-03-21T17:14:05.316Z,56.83
2019-03-21T17:16:34.111Z,53.20
2019-03-21T17:19:03.342Z,52.95
2019-03-21T17:21:32.437Z,50.98
2019-03-21T17:24:01.211Z,51.48
2019-03-21T17:26:30.353Z,51.45
2019-03-21T17:28:59.635Z,48.28
2019-03-21T17:31:28.788Z,51.70
2019-03-21T17:33:57.891Z,49.13
2019-03-21T17:36:27.363Z,51.88
2019-03-21T17:38:56.567Z,54.18
2019-03-21T17:41:25.665Z,58.15
2019-03-21T17:43:54.958Z,49.85
2019-03-21T17:46:25.652Z,53.20
2019-03-21T17:48:54.782Z,52.38
2019-03-21T17:51:24.136Z,49.80
2019-03-21T17:53:53.403Z,54.08
2019-03-21T17:56:22.564Z,57.78
2019-03-21T17:58:51.812Z,50.40
2019-03-21T18:01:21.653Z,50.38
2019-03-21T18:03:52.353Z,50.20
2019-03-21T18:06:22.215Z,51.13
2019-03-21T18:08:51.479Z,52.27
2019-03-21T18:11:20.709Z,49.73
2019-03-21T18:13:49.861Z,53.73
2019-03-21T18:16:19.363Z,49.18
2019-03-21T18:18:50.637Z,53.08
2019-03-21T18:21:25.460Z,50.38
2019-03-21T18:23:56.286Z,50.12
2019-03-21T18:26:25.602Z,55.03
2019-03-21T18:28:54.818Z,57.13
2019-03-21T18:31:24.022Z,51.73
2019-03-21T18:33:53.261Z,58.28
2019-03-21T18:36:22.784Z,52.95
2019-03-21T18:38:58.755Z,53.15
2019-03-21T18:41:22.661Z,56.37
2019-03-21T18:43:53.703Z,48.05
2019-03-21T18:46:22.487Z,56.55
2019-03-21T18:48:52.701Z,47.30
2019-03-21T18:51:22.013Z,53.55
2019-03-21T18:53:51.251Z,49.00
2019-03-21T18:56:20.413Z,46.35
2019-03-21T18:58:49.582Z,49.13
2019-03-21T19:01:18.873Z,46.83
2019-03-21T19:03:48.341Z,52.50
2019-03-21T19:06:17.822Z,45.90
2019-03-21T19:08:48.385Z,44.42
2019-03-21T19:11:17.577Z,51.85
2019-03-21T19:13:46.684Z,47.45
2019-03-21T19:16:16.560Z,44.18
2019-03-21T19:18:46.428Z,50.88
2019-03-21T19:21:15.640Z,49.80
2019-03-21T19:23:44.789Z,51.37
2019-03-21T19:26:14.049Z,49.75
2019-03-21T19:28:43.232Z,51.05
2019-03-21T19:31:12.383Z,52.90
2019-03-21T19:33:41.875Z,53.38
2019-03-21T19:36:10.999Z,52.65
2019-03-21T19:38:40.164Z,60.40
2019-03-21T19:41:09.627Z,56.00
2019-03-21T19:43:38.776Z,63.85
2019-03-21T19:46:07.944Z,64.25
2019-03-21T19:48:37.193Z,67.62
2019-03-21T19:51:07.850Z,63.15
2019-03-21T19:53:37.414Z,61.23
2019-03-21T19:56:08.778Z,60.17
2019-03-21T19:58:37.386Z,62.65
2019-03-21T20:01:06.628Z,65.45
2019-03-21T20:03:35.899Z,62.55
2019-03-21T20:06:05.018Z,62.08
2019-03-21T20:08:34.178Z,61.08
2019-03-21T20:11:03.783Z,68.92
2019-03-21T20:13:32.908Z,65.50
2019-03-21T20:16:02.102Z,61.37
2019-03-21T20:18:31.751Z,66.50
2019-03-21T20:21:01.235Z,67.67
2019-03-21T20:23:30.353Z,62.85
2019-03-21T20:26:00.368Z,61.40
2019-03-21T20:28:30.186Z,55.95
2019-03-21T20:30:59.398Z,58.40
2019-03-21T20:33:29.049Z,65.87
2019-03-21T20:35:58.428Z,64.55
2019-03-21T20:38:27.544Z,67.27
2019-03-21T20:40:56.779Z,67.67
2019-03-21T20:43:26.002Z,65.55
2019-03-21T20:45:55.090Z,65.50
2019-03-21T20:48:29.239Z,69.82
2019-03-21T20:50:59.256Z,66.82
2019-03-21T20:53:28.355Z,59.03
2019-03-21T20:55:58.559Z,62.33
2019-03-21T20:58:27.837Z,58.68
2019-03-21T21:01:03.733Z,58.58
2019-03-21T21:03:32.860Z,66.90
2019-03-21T21:06:02.338Z,54.63
2019-03-21T21:08:31.563Z,68.33
2019-03-21T21:11:01.742Z,65.75
2019-03-21T21:13:32.360Z,64.30
2019-03-21T21:16:02.518Z,62.53
2019-03-21T21:18:33.052Z,61.77
2019-03-21T21:21:02.224Z,68.25
2019-03-21T21:23:31.767Z,66.65
2019-03-21T21:26:05.522Z,72.25
2019-03-21T21:28:32.222Z,63.55
2019-03-21T21:31:01.450Z,64.30
2019-03-21T21:33:30.807Z,64.75
2019-03-21T21:36:00.063Z,65.35
2019-03-21T21:38:29.421Z,62.90
2019-03-21T21:40:58.682Z,68.45
2019-03-21T21:43:27.846Z,72.05
2019-03-21T21:45:56.995Z,65.52
2019-03-21T21:48:26.538Z,64.32
2019-03-21T21:50:55.620Z,70.75
2019-03-21T21:53:24.731Z,69.53
2019-03-21T21:55:53.928Z,61.00
2019-03-21T21:58:23.067Z,61.10
2019-03-21T22:00:52.293Z,63.38
2019-03-21T22:03:21.599Z,59.10
2019-03-21T22:05:51.800Z,62.73
2019-03-21T22:08:20.965Z,68.35
2019-03-21T22:10:50.143Z,75.57
2019-03-21T22:13:19.306Z,61.25
2019-03-21T22:15:48.497Z,68.30
2019-03-21T22:18:17.669Z,78.50
2019-03-21T22:20:46.828Z,69.67
2019-03-21T22:23:15.940Z,72.65
2019-03-21T22:25:45.614Z,68.97
2019-03-21T22:28:14.785Z,73.70
2019-03-21T22:30:43.906Z,72.08
2019-03-21T22:33:13.190Z,65.08
2019-03-21T22:35:42.450Z,71.37
2019-03-21T22:38:11.727Z,69.72
2019-03-21T22:40:40.974Z,76.22
2019-03-21T22:43:10.096Z,63.83
2019-03-21T22:45:39.234Z,70.42
2019-03-21T22:48:08.425Z,66.47
2019-03-21T22:50:37.581Z,72.78
2019-03-21T22:53:06.718Z,69.80
2019-03-21T22:55:35.994Z,72.27
2019-03-21T22:58:05.119Z,72.67
2019-03-21T23:00:42.678Z,70.00
2019-03-21T23:03:12.453Z,71.67
2019-03-21T23:05:41.914Z,69.67
2019-03-21T23:08:11.106Z,67.30
2019-03-21T23:10:40.253Z,75.25
2019-03-21T23:13:09.392Z,75.67
2019-03-21T23:15:38.615Z,69.37
2019-03-21T23:18:07.786Z,73.07
2019-03-21T23:20:36.943Z,68.07
2019-03-21T23:23:06.145Z,69.05
2019-03-21T23:25:35.269Z,61.05
2019-03-21T23:28:05.031Z,75.47
2019-03-21T23:30:34.249Z,75.78
2019-03-21T23:33:05.618Z,80.57
2019-03-21T23:35:34.088Z,70.30
2019-03-21T23:38:03.344Z,73.05
2019-03-21T23:40:32.606Z,74.45
2019-03-21T23:43:01.745Z,71.07
2019-03-21T23:45:31.048Z,65.80
2019-03-21T23:48:00.171Z,66.92
2019-03-21T23:50:29.295Z,68.65
2019-03-21T23:52:58.493Z,72.00
2019-03-21T23:55:27.620Z,68.05
2019-03-21T23:57:56.735Z,77.95
